Latest Coastal Weather Observations for Ngayawili (Elcho Island)

IDD60701

Issued at 4:31 am CST Tuesday 24 October 2017 (issued every 10 minutes, with the page automatically refreshed every 10 minutes)

About coastal observations | Map of coastal stations | Coastal observations for NT | Marine services | Other Formats
Station Details ID: 014517 Name: NGAYAWILI Lat: -12.00 Lon: 135.57 Height: 8.1 m
Data from the previous 72 hours. | See also: Recent months at Ngayawili (Elcho Island)
Date/Time
CST
Temp
°C
Wind Pressure Rain since
9am
mm
Weather Cloud Vis
km
Sea
Height
m
Swell
Dir  Spd
kts
Gust
kts
hPa Trend Height
m
Period
s
Dir
24/04:30am 19.8 SSE 3 5 1011.3 - 0.0 - - - - - - -
24/04:00am 19.7 SSE 5 5 1011.0 - 0.0 - - - - - - -
24/03:30am 20.4 SSE 4 5 1011.0 - 0.0 - - - - - - -
24/03:00am 21.5 SSE 5 6 1010.7 - 0.0 - - - - - - -
24/02:30am 21.1 CALM 0 0 1010.7 - 0.0 - - - - - - -
24/02:00am 21.4 CALM 0 0 1010.9 - 0.0 - - - - - - -
24/01:30am 21.3 CALM 0 0 1010.9 - 0.0 - - - - - - -
24/01:00am 22.0 E 3 4 1011.2 - 0.0 - - - - - - -
24/12:30am 23.6 ENE 3 4 1011.5 - 0.0 - - - - - - -
24/12:00am 23.1 E 3 4 1011.7 - 0.0 - - - - - - -
 
Date/Time
CST
Temp
°C
Wind Pressure Rain since
9am
mm
Weather Cloud Vis
km
Sea
Height
m
Swell
Dir  Spd
kts
Gust
kts
hPa Trend Height
m
Period
s
Dir
23/11:30pm 24.2 ESE 3 4 1012.1 - 0.0 - - - - - - -
23/11:00pm 25.0 SE 3 4 1012.2 - 0.0 - - - - - - -
23/10:30pm 24.6 ESE 3 4 1012.2 - 0.0 - - - - - - -
23/10:00pm 26.0 E 4 6 1011.9 - 0.0 - - - - - - -
23/09:30pm 26.7 ESE 4 5 1011.5 - 0.0 - - - - - - -
23/09:00pm 25.7 ESE 4 5 1011.0 - 0.0 - - - - - - -
23/08:30pm 27.1 E 4 5 1010.5 - 0.0 - - - - - - -
23/08:00pm 27.9 ENE 3 6 1010.0 - 0.0 - - - - - - -
23/07:30pm 29.2 NNE 9 13 1009.6 - 0.0 - - - - - - -
23/07:00pm 29.1 NNE 7 10 1009.5 - 0.0 - - - - - - -
23/06:30pm 29.5 N 11 13 1009.3 - 0.0 - - - - - - -
23/06:00pm 30.2 N 12 14 1008.9 - 0.0 - - - - - - -
23/05:30pm 30.6 N 12 14 1008.4 - 0.0 - - - - - - -
23/05:00pm 31.0 N 12 14 1008.0 - 0.0 - - - - - - -
23/04:30pm 30.9 N 13 15 1007.9 - 0.0 - - - - - - -
23/04:00pm 31.9 N 12 14 1007.8 - 0.0 - - - - - - -
23/03:30pm 31.6 NNW 14 16 1008.0 - 0.0 - - - - - - -
23/03:00pm 31.8 NNW 12 13 1008.2 - 0.0 - - - - - - -
23/02:30pm 32.2 NW 11 13 1008.4 - 0.0 - - - - - - -
23/02:00pm 32.7 NW 11 13 1008.6 - 0.0 - - - - - - -
23/01:30pm 31.9 NW 12 14 1009.0 - 0.0 - - - - - - -
23/01:00pm 32.1 NNW 13 15 1009.5 - 0.0 - - - - - - -
23/12:30pm 32.0 NW 12 16 1010.2 - 0.0 - - - - - - -
23/12:00pm 31.7 NNW 10 14 1010.8 - 0.0 - - - - - - -
23/11:30am 33.9 SE 6 14 1011.1 - 0.0 - - - - - - -
23/11:00am 32.9 ESE 7 12 1011.4 - 0.0 - - - - - - -
23/10:30am 33.1 SSE 9 14 1011.7 - 0.0 - - - - - - -
23/10:00am 32.2 SSE 9 13 1011.9 - 0.0 - - - - - - -
23/09:30am 31.5 SE 6 9 1012.1 - 0.0 - - - - - - -
23/09:00am 30.6 SE 6 11 1012.3 - 0.0 - - - - - - -
23/08:30am 29.8 ESE 6 11 1012.1 - 0.0 - - - - - - -
23/08:00am 29.2 SE 5 8 1011.9 - 0.0 - - - - - - -
23/07:30am 28.3 E 2 5 1011.6 - 0.0 - - - - - - -
23/07:00am 26.0 CALM 0 0 1011.5 - 0.0 - - - - - - -
23/06:30am 23.0 CALM 0 0 1011.3 - 0.0 - - - - - - -
23/06:00am 23.0 CALM 0 0 1011.0 - 0.0 - - - - - - -
23/05:30am 23.2 CALM 0 0 1010.8 - 0.0 - - - - - - -
23/05:00am 23.6 CALM 0 0 1010.6 - 0.0 - - - - - - -
23/04:30am 24.8 CALM 0 0 1010.3 - 0.0 - - - - - - -
23/04:00am 24.6 CALM 0 0 1010.1 - 0.0 - - - - - - -
23/03:30am 25.4 E 3 4 1009.6 - 0.0 - - - - - - -
23/03:00am 25.8 ENE 3 4 1009.7 - 0.0 - - - - - - -
23/02:30am 26.2 ENE 4 6 1009.5 - 0.0 - - - - - - -
23/02:00am 26.4 E 5 7 1009.6 - 0.0 - - - - - - -
23/01:30am 26.7 E 5 7 1009.8 - 0.0 - - - - - - -
23/01:00am 26.9 ENE 3 6 1010.2 - 0.0 - - - - - - -
23/12:30am 27.2 E 5 6 1010.6 - 0.0 - - - - - - -
23/12:00am 27.5 E 5 8 1010.9 - 0.0 - - - - - - -
 
Date/Time
CST
Temp
°C
Wind Pressure Rain since
9am
mm
Weather Cloud Vis
km
Sea
Height
m
Swell
Dir  Spd
kts
Gust
kts
hPa Trend Height
m
Period
s
Dir
22/11:30pm 27.7 SE 7 11 1011.2 - 0.0 - - - - - - -
22/11:00pm 27.9 ESE 7 11 1011.4 - 0.0 - - - - - - -
22/10:30pm 28.2 SE 9 13 1011.5 - 0.0 - - - - - - -
22/10:00pm 28.4 SE 8 13 1011.4 - 0.0 - - - - - - -
22/09:30pm 28.6 ESE 7 12 1010.8 - 0.0 - - - - - - -
22/09:00pm 28.9 ESE 8 13 1010.3 - 0.0 - - - - - - -
22/08:30pm 29.2 ESE 9 14 1009.9 - 0.0 - - - - - - -
22/08:00pm 28.9 ENE 5 8 1009.7 - 0.0 - - - - - - -
22/07:30pm 29.1 ENE 5 7 1009.1 - 0.0 - - - - - - -
22/07:00pm 29.6 NE 5 8 1008.7 - 0.0 - - - - - - -
22/06:30pm 30.5 ENE 5 10 1008.3 - 0.0 - - - - - - -
22/06:00pm 31.2 ENE 7 10 1007.8 - 0.0 - - - - - - -
22/05:30pm 32.2 E 7 11 1007.6 - 0.0 - - - - - - -
22/05:00pm 33.0 ESE 8 14 1007.3 - 0.0 - - - - - - -
22/04:30pm 33.2 ESE 8 14 1007.2 - 0.0 - - - - - - -
22/04:00pm 33.0 ESE 7 14 1007.4 - 0.0 - - - - - - -
22/03:30pm 32.8 NE 4 11 1007.8 - 0.0 - - - - - - -
22/03:00pm 31.9 NE 9 14 1008.0 - 0.0 - - - - - - -
22/02:30pm 34.2 E 7 12 1008.2 - 0.0 - - - - - - -
22/02:00pm 34.3 ENE 7 12 1008.6 - 0.0 - - - - - - -
22/01:30pm 34.8 E 9 14 1009.0 - 0.0 - - - - - - -
22/01:00pm 34.1 E 9 14 1009.5 - 0.0 - - - - - - -
22/12:30pm 34.1 E 10 16 1010.2 - 0.0 - - - - - - -
22/12:00pm 34.2 ESE 9 17 1010.9 - 0.0 - - - - - - -
22/11:30am 32.8 W 6 14 1011.4 - 0.0 - - - - - - -
22/11:00am 31.6 NNW 4 7 1011.8 - 0.0 - - - - - - -
22/10:30am 32.8 E 5 10 1012.1 - 0.0 - - - - - - -
22/10:00am 31.4 SE 7 11 1012.3 - 0.0 - - - - - - -
22/09:30am 31.4 E 6 8 1012.6 - 0.0 - - - - - - -
22/09:00am 30.8 ESE 5 8 1012.8 - 0.0 - - - - - - -
22/08:30am 29.9 ESE 5 8 1012.8 - 0.0 - - - - - - -
22/08:00am 28.8 SE 5 7 1012.5 - 0.0 - - - - - - -
22/07:30am 27.6 SE 3 5 1012.4 - 0.0 - - - - - - -
22/07:00am 26.1 SSE 5 6 1012.1 - 0.0 - - - - - - -
22/06:30am 25.3 SSE 4 5 1011.7 - 0.0 - - - - - - -
22/06:00am 24.9 SE 5 5 1011.5 - 0.0 - - - - - - -
22/05:30am 24.8 ESE 4 5 1011.2 - 0.0 - - - - - - -
22/05:00am 24.9 SE 5 5 1010.7 - 0.0 - - - - - - -
22/04:30am 25.0 ENE 2 3 1010.2 - 0.0 - - - - - - -
22/04:00am 25.7 ENE 3 3 1009.8 - 0.0 - - - - - - -
22/03:30am 25.2 CALM 0 0 1009.6 - 0.0 - - - - - - -
22/03:00am 24.5 CALM 0 0 1009.6 - 0.0 - - - - - - -
22/02:30am 24.8 ENE 1 3 1009.6 - 0.0 - - - - - - -
22/02:00am 25.7 E 4 5 1009.8 - 0.0 - - - - - - -
22/01:30am 25.1 S 3 4 1010.2 - 0.0 - - - - - - -
22/01:00am 25.3 SSE 2 4 1010.3 - 0.0 - - - - - - -
22/12:30am 25.2 CALM 0 0 1010.5 - 0.0 - - - - - - -
22/12:00am 25.8 CALM 0 0 1010.9 - 0.0 - - - - - - -
 
Date/Time
CST
Temp
°C
Wind Pressure Rain since
9am
mm
Weather Cloud Vis
km
Sea
Height
m
Swell
Dir  Spd
kts
Gust
kts
hPa Trend Height
m
Period
s
Dir
21/11:30pm 26.2 CALM 0 0 1011.0 - 0.0 - - - - - - -
21/11:00pm 26.6 SE 3 4 1011.0 - 0.0 - - - - - - -
21/10:30pm 26.5 ESE 2 5 1011.3 - 0.0 - - - - - - -
21/10:00pm 26.4 E 3 4 1011.2 - 0.0 - - - - - - -
21/09:30pm 26.6 ESE 4 5 1011.1 - 0.0 - - - - - - -
21/09:00pm 26.7 ENE 3 4 1010.7 - 0.0 - - - - - - -
21/08:30pm 26.6 ESE 3 3 1010.5 - 0.0 - - - - - - -
21/08:00pm 26.8 ESE 3 4 1010.3 - 0.0 - - - - - - -
21/07:30pm 27.0 SE 4 4 1010.1 - 0.0 - - - - - - -
21/07:00pm 27.4 ESE 5 6 1010.1 - 0.0 - - - - - - -
21/06:30pm 27.9 E 3 4 1009.9 - 0.0 - - - - - - -
21/06:00pm 28.3 SSE 5 6 1009.7 - 0.0 - - - - - - -
21/05:30pm 29.1 WSW 7 15 1009.6 - 0.0 - - - - - - -
21/05:00pm 30.1 N 7 9 1009.3 - 0.0 - - - - - - -
21/04:30pm 31.0 N 11 13 1009.4 - 0.0 - - - - - - -
21/04:00pm 31.3 N 13 14 1009.0 - 0.0 - - - - - - -
21/03:30pm 31.4 N 13 15 1009.0 - 0.0 - - - - - - -
21/03:00pm 31.7 N 13 15 1009.1 - 0.0 - - - - - - -
21/02:30pm 32.1 N 12 14 1009.4 - 0.0 - - - - - - -
21/02:00pm 31.6 N 12 14 1009.9 - 0.0 - - - - - - -
21/01:30pm 31.5 NNW 13 14 1010.5 - 0.0 - - - - - - -
21/01:00pm 32.2 N 13 16 1010.9 - 0.0 - - - - - - -
21/12:30pm 32.0 N 13 15 1011.3 - 0.0 - - - - - - -
21/12:00pm 30.1 N 13 15 1011.8 - 0.0 - - - - - - -
21/11:30am 31.4 N 12 16 1012.3 - 0.0 - - - - - - -
21/11:00am 31.5 N 6 11 1012.7 - 0.0 - - - - - - -
21/10:30am 32.2 ESE 6 14 1012.9 - 0.0 - - - - - - -
21/10:00am 31.6 E 6 9 1013.1 - 0.0 - - - - - - -
21/09:30am 29.6 ENE 5 8 1013.4 - 0.0 - - - - - - -
21/09:00am 29.3 ESE 6 11 1013.3 - - - - - - - - -
21/08:30am 29.5 ESE 6 9 1013.2 - - - - - - - - -
21/08:00am 27.6 SE 5 8 1013.1 - - - - - - - - -
21/07:30am 27.1 SSE 5 6 1012.8 - - - - - - - - -
21/07:00am 25.3 CALM 0 0 1012.3 - - - - - - - - -
21/06:30am 23.8 CALM 0 0 1011.9 - - - - - - - - -
21/06:00am 23.4 CALM 0 0 1011.5 - - - - - - - - -
21/05:30am 23.2 CALM 0 0 1011.3 - - - - - - - - -
21/05:00am 23.6 CALM 0 0 1011.1 - - - - - - - - -

Other Formats:

Comma delimited format used in spreadsheet applications
http://www.bom.gov.au/fwo/IDD60701/IDD60701.95146.axf

JavaScript Object Notation format (JSON) in row-major order
http://www.bom.gov.au/fwo/IDD60701/IDD60701.95146.json